createdAt,value
2022-11-30T00:01:53.968Z,49.50
2022-11-30T00:11:55.261Z,49.44
2022-11-30T00:21:56.503Z,49.55
2022-11-30T00:31:57.752Z,49.46
2022-11-30T00:41:58.954Z,49.65
2022-11-30T00:52:00.187Z,49.46
2022-11-30T01:02:01.518Z,49.00
2022-11-30T01:12:02.854Z,49.26
2022-11-30T01:22:04.106Z,48.87
2022-11-30T01:32:05.339Z,48.80
2022-11-30T01:42:06.604Z,48.68
2022-11-30T01:52:07.890Z,48.48
2022-11-30T02:02:09.265Z,48.33
2022-11-30T02:12:10.516Z,48.27
2022-11-30T02:22:11.786Z,48.17
2022-11-30T02:32:13.052Z,48.17
2022-11-30T02:42:14.348Z,47.94
2022-11-30T02:52:15.674Z,47.98
2022-11-30T03:02:16.969Z,47.89
2022-11-30T03:12:18.325Z,48.04
2022-11-30T03:22:19.609Z,47.62
2022-11-30T03:32:20.867Z,47.56
2022-11-30T03:42:22.127Z,47.40
2022-11-30T03:52:23.375Z,47.20
2022-11-30T04:02:24.677Z,47.21
2022-11-30T04:12:25.994Z,46.84
2022-11-30T04:22:27.292Z,46.85
2022-11-30T04:32:28.534Z,46.58
2022-11-30T04:42:29.782Z,46.83
2022-11-30T04:52:32.222Z,46.43
2022-11-30T05:02:33.460Z,46.16
2022-11-30T05:12:34.713Z,46.35
2022-11-30T05:22:36.049Z,45.85
2022-11-30T05:32:37.286Z,45.81
2022-11-30T05:42:38.525Z,45.96
2022-11-30T05:52:39.776Z,46.32
2022-11-30T06:02:41.158Z,46.67
2022-11-30T06:12:42.476Z,46.56
2022-11-30T06:22:43.764Z,46.72
2022-11-30T06:32:45.001Z,46.85
2022-11-30T06:42:46.234Z,46.76
2022-11-30T06:52:47.490Z,46.73
2022-11-30T07:02:48.881Z,46.85
2022-11-30T07:12:50.249Z,46.83
2022-11-30T07:22:51.646Z,46.85
2022-11-30T07:32:52.886Z,46.84
2022-11-30T07:42:54.366Z,46.92
2022-11-30T07:52:55.744Z,46.90
2022-11-30T08:02:57.174Z,47.03
2022-11-30T08:12:58.551Z,47.43
2022-11-30T08:22:59.897Z,47.52
2022-11-30T08:33:01.282Z,47.57
2022-11-30T08:43:02.615Z,47.62
2022-11-30T08:53:06.487Z,48.43
2022-11-30T09:03:08.076Z,49.29
2022-11-30T09:13:09.433Z,49.72
2022-11-30T09:23:10.855Z,50.06
2022-11-30T09:33:12.206Z,51.75
2022-11-30T09:43:13.578Z,52.09
2022-11-30T09:53:14.975Z,52.44
2022-11-30T10:03:16.434Z,52.66
2022-11-30T10:13:17.857Z,53.34
2022-11-30T10:23:19.162Z,53.58
2022-11-30T10:33:20.451Z,54.75
2022-11-30T10:43:21.698Z,55.03
2022-11-30T10:53:23.054Z,55.96
2022-11-30T11:03:24.335Z,56.73
2022-11-30T11:13:25.738Z,55.01
2022-11-30T11:23:26.991Z,54.81
2022-11-30T11:33:28.230Z,54.09
2022-11-30T11:43:29.622Z,53.18
2022-11-30T11:53:31.569Z,52.51
2022-11-30T12:03:32.974Z,52.09
2022-11-30T12:13:34.260Z,51.29
2022-11-30T12:23:35.557Z,51.26
2022-11-30T12:33:36.978Z,52.14
2022-11-30T12:43:38.294Z,52.56
2022-11-30T12:53:39.549Z,52.80
2022-11-30T13:03:40.919Z,52.16
2022-11-30T13:13:42.332Z,51.73
2022-11-30T13:23:43.592Z,51.37
2022-11-30T13:33:44.956Z,50.98
2022-11-30T13:43:46.292Z,50.80
2022-11-30T13:53:47.714Z,50.28
2022-11-30T14:03:52.978Z,50.04
2022-11-30T14:13:55.650Z,49.75
2022-11-30T14:23:57.040Z,49.59
2022-11-30T14:33:58.410Z,49.15
2022-11-30T14:43:59.799Z,48.97
2022-11-30T14:54:01.173Z,48.83
2022-11-30T15:04:02.490Z,48.67
2022-11-30T15:14:03.877Z,48.67
2022-11-30T15:24:05.178Z,48.31
2022-11-30T15:34:06.592Z,48.22
2022-11-30T15:44:07.957Z,47.21
2022-11-30T15:54:09.357Z,46.83
2022-11-30T16:04:10.752Z,46.49
2022-11-30T16:14:12.096Z,46.00
2022-11-30T16:24:13.375Z,45.69
2022-11-30T16:34:14.805Z,46.09
2022-11-30T16:44:16.193Z,46.03
2022-11-30T16:54:17.518Z,45.51
2022-11-30T17:04:18.862Z,45.69
2022-11-30T17:14:20.234Z,45.70
2022-11-30T17:24:21.622Z,45.80
2022-11-30T17:34:22.971Z,45.27
2022-11-30T17:44:24.324Z,44.95
2022-11-30T17:54:25.715Z,45.35
2022-11-30T18:04:27.050Z,45.35
2022-11-30T18:14:28.432Z,45.09
2022-11-30T18:24:29.791Z,44.94
2022-11-30T18:34:31.156Z,44.82
2022-11-30T18:44:32.447Z,44.86
2022-11-30T18:54:33.876Z,44.89
2022-11-30T19:04:35.161Z,44.96
2022-11-30T19:14:36.453Z,44.89
2022-11-30T19:24:37.803Z,45.16
2022-11-30T19:34:39.171Z,44.91
2022-11-30T19:44:40.457Z,44.86
2022-11-30T19:54:41.768Z,44.82
2022-11-30T20:15:06.726Z,45.13
2022-11-30T20:25:07.988Z,44.69
2022-11-30T20:35:09.402Z,44.32
2022-11-30T20:45:10.772Z,44.93
2022-11-30T20:55:12.054Z,44.62
2022-11-30T21:05:13.340Z,44.55
2022-11-30T21:15:14.724Z,44.78
2022-11-30T21:25:16.157Z,44.72
2022-11-30T21:35:17.411Z,44.29
2022-11-30T21:45:18.826Z,44.36
2022-11-30T21:55:20.192Z,44.38
2022-11-30T22:05:21.663Z,44.37
2022-11-30T22:15:22.944Z,44.40
2022-11-30T22:25:24.269Z,44.36
2022-11-30T22:35:25.646Z,44.22
2022-11-30T22:45:26.951Z,44.23
2022-11-30T22:55:28.437Z,44.08
2022-11-30T23:05:29.942Z,44.22
2022-11-30T23:15:31.202Z,44.26
2022-11-30T23:25:32.464Z,44.10
2022-11-30T23:35:33.742Z,43.67
2022-11-30T23:45:35.034Z,43.35
2022-11-30T23:55:36.333Z,43.71
